createdAt,value
2022-09-02T00:04:26.051Z,100.00
2022-09-02T00:14:31.674Z,100.00
2022-09-02T00:24:37.456Z,100.00
2022-09-02T00:34:42.978Z,100.00
2022-09-02T00:44:48.601Z,100.00
2022-09-02T00:54:54.550Z,100.00
2022-09-02T01:05:00.852Z,100.00
2022-09-02T01:15:06.861Z,100.00
2022-09-02T01:25:12.379Z,100.00
2022-09-02T01:35:18.590Z,100.00
2022-09-02T01:45:24.662Z,100.00
2022-09-02T01:55:30.127Z,100.00
2022-09-02T02:05:36.486Z,100.00
2022-09-02T02:15:42.346Z,100.00
2022-09-02T02:25:48.053Z,100.00
2022-09-02T02:35:53.738Z,100.00
2022-09-02T02:46:01.548Z,100.00
2022-09-02T02:56:07.451Z,100.00
2022-09-02T03:06:13.421Z,100.00
2022-09-02T03:16:19.911Z,100.00
2022-09-02T03:26:26.074Z,100.00
2022-09-02T03:36:32.163Z,100.00
2022-09-02T03:46:37.984Z,100.00
2022-09-02T03:56:43.991Z,100.00
2022-09-02T04:06:51.607Z,100.00
2022-09-02T04:16:57.723Z,100.00
2022-09-02T04:27:04.527Z,100.00
2022-09-02T04:37:11.046Z,100.00
2022-09-02T04:47:16.613Z,100.00
2022-09-02T04:57:22.997Z,100.00
2022-09-02T05:07:30.920Z,100.00
2022-09-02T05:17:37.773Z,100.00
2022-09-02T05:27:44.256Z,100.00
2022-09-02T05:37:50.871Z,100.00
2022-09-02T05:47:57.715Z,100.00
2022-09-02T05:58:04.471Z,100.00
2022-09-02T06:08:10.631Z,100.00
2022-09-02T06:18:17.098Z,100.00
2022-09-02T06:28:25.048Z,100.00
2022-09-02T06:38:31.383Z,100.00
2022-09-02T06:48:37.883Z,96.16
2022-09-02T06:58:43.776Z,95.65
2022-09-02T07:08:50.281Z,94.34
2022-09-02T07:18:56.679Z,91.15
2022-09-02T07:29:03.003Z,85.63
2022-09-02T07:39:09.711Z,80.24
2022-09-02T07:49:17.425Z,68.28
2022-09-02T07:59:27.238Z,54.27
2022-09-02T08:09:36.425Z,44.08
2022-09-02T08:19:44.124Z,40.51
2022-09-02T08:29:50.814Z,38.66
2022-09-02T08:39:57.882Z,35.17
2022-09-02T08:50:03.881Z,36.37
2022-09-02T09:00:10.301Z,37.61
2022-09-02T09:10:16.714Z,37.25
2022-09-02T09:20:23.862Z,33.90
2022-09-02T09:30:30.364Z,34.84
2022-09-02T09:40:35.584Z,38.37
2022-09-02T09:50:42.170Z,35.83
2022-09-02T10:00:47.842Z,37.85
2022-09-02T10:10:53.164Z,40.72
2022-09-02T10:21:16.247Z,36.57
2022-09-02T10:31:12.173Z,36.09
2022-09-02T10:41:18.753Z,34.21
2022-09-02T10:51:25.300Z,33.01
2022-09-02T11:01:30.410Z,36.50
2022-09-02T11:11:36.287Z,38.03
2022-09-02T11:21:42.170Z,38.76
2022-09-02T11:31:48.565Z,39.45
2022-09-02T11:41:54.968Z,37.39
2022-09-02T11:52:03.511Z,31.29
2022-09-02T12:02:09.786Z,35.50
2022-09-02T12:12:15.686Z,35.45
2022-09-02T12:22:21.494Z,35.43
2022-09-02T12:32:26.776Z,38.35
2022-09-02T12:42:33.196Z,38.68
2022-09-02T12:52:39.424Z,42.97
2022-09-02T13:02:45.513Z,41.65
2022-09-02T13:12:53.470Z,34.03
2022-09-02T13:22:59.537Z,32.14
2022-09-02T13:33:07.738Z,29.43
2022-09-02T13:43:14.130Z,29.36
2022-09-02T13:53:53.636Z,30.91
2022-09-02T14:03:29.532Z,36.02
2022-09-02T14:13:35.569Z,36.21
2022-09-02T14:23:44.569Z,33.51
2022-09-02T14:33:51.856Z,31.99
2022-09-02T14:43:57.148Z,33.76
2022-09-02T14:54:05.726Z,32.56
2022-09-02T15:04:12.423Z,32.21
2022-09-02T15:14:21.663Z,32.86
2022-09-02T15:24:29.107Z,32.23
2022-09-02T15:34:37.049Z,34.32
2022-09-02T15:44:44.341Z,31.57
2022-09-02T15:54:51.151Z,34.00
2022-09-02T16:04:56.531Z,40.36
2022-09-02T16:15:03.008Z,38.24
2022-09-02T16:25:11.178Z,37.50
2022-09-02T16:35:18.239Z,39.93
2022-09-02T17:02:37.230Z,43.17
2022-09-02T17:14:01.770Z,43.16
2022-09-02T17:24:07.732Z,43.77
2022-09-02T17:34:15.036Z,47.31
2022-09-02T17:44:22.600Z,48.35
2022-09-02T17:58:28.465Z,52.38
2022-09-02T18:09:54.458Z,51.90
2022-09-02T18:22:39.324Z,52.62
2022-09-02T18:32:44.590Z,54.91
2022-09-02T18:44:11.104Z,60.68
2022-09-02T18:54:17.309Z,59.61
2022-09-02T19:04:28.696Z,60.41
2022-09-02T19:17:14.747Z,64.16
2022-09-02T19:27:22.135Z,65.29
2022-09-02T19:48:07.946Z,75.96
2022-09-02T19:59:32.490Z,81.26
2022-09-02T20:09:42.132Z,84.95
2022-09-02T20:19:48.727Z,86.86
2022-09-02T20:31:29.035Z,81.65
2022-09-02T20:41:35.193Z,80.32
2022-09-02T20:54:20.708Z,77.36
2022-09-02T21:04:26.338Z,77.72
2022-09-02T21:14:33.201Z,78.58
2022-09-02T21:24:39.626Z,77.21
2022-09-02T21:36:06.176Z,75.69
2022-09-02T21:46:12.049Z,75.32
2022-09-02T21:56:20.816Z,75.76
2022-09-02T22:22:18.783Z,78.85
2022-09-02T22:32:24.305Z,76.89
2022-09-02T22:42:31.339Z,76.89
2022-09-02T22:52:38.830Z,77.50
2022-09-02T23:02:45.979Z,80.86
2022-09-02T23:12:53.248Z,80.29
2022-09-02T23:23:01.093Z,83.62
2022-09-02T23:33:08.534Z,80.04
2022-09-02T23:43:15.415Z,79.64
2022-09-02T23:53:22.054Z,81.19
